createdAt,value
2023-04-19T00:01:36.895Z,6.78
2023-04-19T00:04:03.832Z,6.25
2023-04-19T00:06:31.922Z,6.32
2023-04-19T00:08:58.554Z,6.63
2023-04-19T00:11:25.852Z,6.47
2023-04-19T00:13:52.557Z,6.63
2023-04-19T00:16:19.320Z,6.50
2023-04-19T00:18:46.826Z,6.38
2023-04-19T00:21:13.507Z,5.65
2023-04-19T00:23:40.226Z,5.78
2023-04-19T00:26:07.068Z,6.35
2023-04-19T00:28:34.165Z,5.85
2023-04-19T00:31:00.942Z,6.25
2023-04-19T00:33:27.720Z,6.10
2023-04-19T00:35:54.376Z,6.05
2023-04-19T00:38:21.042Z,6.78
2023-04-19T00:40:47.745Z,6.18
2023-04-19T00:43:18.930Z,6.90
2023-04-19T00:45:46.246Z,6.55
2023-04-19T00:48:14.568Z,6.22
2023-04-19T00:50:43.438Z,6.78
2023-04-19T00:53:11.048Z,7.25
2023-04-19T00:55:39.509Z,7.65
2023-04-19T00:58:08.403Z,6.93
2023-04-19T01:00:36.041Z,6.82
2023-04-19T01:03:03.135Z,6.93
2023-04-19T01:05:31.020Z,6.90
2023-04-19T01:07:57.580Z,6.22
2023-04-19T01:10:24.423Z,6.85
2023-04-19T01:12:51.026Z,6.60
2023-04-19T01:15:17.749Z,6.82
2023-04-19T01:17:44.502Z,7.22
2023-04-19T01:20:11.727Z,6.70
2023-04-19T01:22:38.381Z,6.72
2023-04-19T01:25:05.483Z,7.32
2023-04-19T01:27:32.069Z,7.20
2023-04-19T01:29:58.855Z,6.95
2023-04-19T01:32:28.509Z,7.78
2023-04-19T01:34:55.157Z,7.33
2023-04-19T01:37:21.824Z,7.40
2023-04-19T01:39:48.590Z,7.43
2023-04-19T01:42:15.423Z,7.80
2023-04-19T01:44:42.201Z,8.50
2023-04-19T01:47:08.891Z,8.18
2023-04-19T01:49:35.804Z,7.80
2023-04-19T01:52:02.530Z,7.57
2023-04-19T01:54:29.386Z,8.38
2023-04-19T01:56:56.030Z,7.93
2023-04-19T01:59:22.654Z,8.48
2023-04-19T02:01:49.351Z,8.30
2023-04-19T02:04:16.313Z,8.38
2023-04-19T02:06:45.909Z,8.05
2023-04-19T02:09:12.551Z,8.63
2023-04-19T02:11:39.128Z,8.60
2023-04-19T02:14:06.240Z,8.52
2023-04-19T02:16:35.137Z,8.88
2023-04-19T02:19:02.512Z,8.57
2023-04-19T02:21:29.474Z,7.43
2023-04-19T02:23:56.212Z,8.45
2023-04-19T02:26:24.550Z,8.25
2023-04-19T02:28:52.966Z,7.82
2023-04-19T02:31:20.157Z,8.05
2023-04-19T02:33:46.927Z,7.93
2023-04-19T02:36:13.724Z,8.50
2023-04-19T02:38:40.854Z,7.85
2023-04-19T02:41:07.540Z,8.00
2023-04-19T02:43:34.155Z,7.20
2023-04-19T02:46:01.236Z,6.97
2023-04-19T02:48:27.920Z,7.22
2023-04-19T02:50:54.557Z,7.25
2023-04-19T02:53:21.520Z,6.32
2023-04-19T02:55:48.139Z,7.18
2023-04-19T02:58:14.801Z,6.97
2023-04-19T03:00:41.568Z,7.03
2023-04-19T03:03:09.809Z,5.90
2023-04-19T03:05:36.538Z,6.30
2023-04-19T03:08:03.327Z,6.43
2023-04-19T03:10:29.926Z,6.28
2023-04-19T03:12:56.491Z,6.13
2023-04-19T03:15:23.352Z,6.47
2023-04-19T03:17:49.975Z,6.93
2023-04-19T03:20:17.223Z,6.25
2023-04-19T03:22:44.124Z,6.45
2023-04-19T03:25:12.709Z,5.72
2023-04-19T03:27:39.457Z,5.93
2023-04-19T03:30:07.160Z,5.60
2023-04-19T03:32:33.818Z,6.05
2023-04-19T03:35:00.543Z,6.13
2023-04-19T03:37:27.240Z,5.82
2023-04-19T03:39:53.808Z,5.97
2023-04-19T03:42:20.391Z,5.70
2023-04-19T03:44:47.146Z,5.15
2023-04-19T03:47:13.879Z,5.60
2023-04-19T03:49:40.451Z,6.07
2023-04-19T03:52:07.282Z,6.10
2023-04-19T03:54:33.865Z,6.40
2023-04-19T03:57:00.605Z,5.70
2023-04-19T03:59:27.433Z,5.40
2023-04-19T04:01:54.045Z,5.63
2023-04-19T04:04:21.094Z,5.85
2023-04-19T04:06:48.219Z,5.15
2023-04-19T04:09:14.850Z,5.43
2023-04-19T04:11:41.473Z,5.13
2023-04-19T04:14:08.381Z,5.70
2023-04-19T04:16:35.028Z,4.95
2023-04-19T04:19:01.829Z,5.80
2023-04-19T04:21:28.689Z,5.25
2023-04-19T04:23:55.254Z,5.55
2023-04-19T04:26:21.975Z,5.57
2023-04-19T04:28:48.774Z,5.10
2023-04-19T04:31:18.254Z,5.55
2023-04-19T04:33:45.948Z,5.87
2023-04-19T04:36:12.954Z,6.63
2023-04-19T04:38:39.623Z,5.15
2023-04-19T04:41:06.427Z,5.63
2023-04-19T04:43:34.925Z,4.93
2023-04-19T04:46:02.007Z,5.15
2023-04-19T04:48:28.697Z,5.00
2023-04-19T04:50:55.589Z,4.97
2023-04-19T04:53:22.192Z,5.32
2023-04-19T04:55:48.826Z,5.53
2023-04-19T04:58:15.716Z,4.75
2023-04-19T05:00:42.324Z,4.65
2023-04-19T05:03:09.012Z,5.68
2023-04-19T05:05:35.841Z,5.13
2023-04-19T05:08:02.701Z,4.53
2023-04-19T05:10:29.281Z,5.03
2023-04-19T05:12:56.397Z,4.75
2023-04-19T05:15:23.244Z,4.72
2023-04-19T05:17:49.857Z,5.15
2023-04-19T05:20:16.732Z,5.28
2023-04-19T05:22:43.396Z,4.80
2023-04-19T05:25:10.848Z,4.10
2023-04-19T05:27:37.753Z,4.43
2023-04-19T05:30:06.644Z,4.93
2023-04-19T05:32:33.520Z,4.63
2023-04-19T05:35:00.392Z,4.38
2023-04-19T05:37:27.150Z,4.50
2023-04-19T05:39:53.753Z,4.47
2023-04-19T05:42:20.666Z,4.60
2023-04-19T05:44:47.237Z,4.30
2023-04-19T05:47:13.878Z,4.30
2023-04-19T05:49:42.009Z,3.92
2023-04-19T05:52:09.747Z,4.30
2023-04-19T05:54:36.394Z,4.00
2023-04-19T05:57:03.839Z,4.00
2023-04-19T05:59:30.541Z,4.38
2023-04-19T06:01:57.419Z,3.47
2023-04-19T06:04:25.047Z,3.88
2023-04-19T06:06:51.901Z,3.88
2023-04-19T06:09:18.749Z,3.90
2023-04-19T06:11:50.745Z,3.75
2023-04-19T06:14:18.849Z,3.47
2023-04-19T06:16:45.894Z,3.83
2023-04-19T06:19:12.784Z,4.20
2023-04-19T06:21:39.490Z,3.80
2023-04-19T06:24:07.442Z,3.35
2023-04-19T06:26:34.718Z,3.53
2023-04-19T06:29:01.344Z,3.65
2023-04-19T06:31:28.103Z,3.30
2023-04-19T06:33:55.109Z,3.20
2023-04-19T06:36:21.737Z,3.50
2023-04-19T06:38:49.940Z,3.20
2023-04-19T06:41:17.054Z,3.42
2023-04-19T06:43:44.911Z,3.10
2023-04-19T06:46:14.075Z,3.35
2023-04-19T06:48:41.394Z,3.28
2023-04-19T06:51:08.117Z,3.20
2023-04-19T06:53:35.699Z,3.50
2023-04-19T06:56:06.833Z,3.08
2023-04-19T06:58:35.097Z,3.28
2023-04-19T07:01:04.069Z,3.22
2023-04-19T07:03:31.151Z,3.60
2023-04-19T07:05:57.975Z,3.60
2023-04-19T07:08:32.092Z,3.10
2023-04-19T07:11:02.249Z,3.17
2023-04-19T07:13:28.900Z,3.08
2023-04-19T07:15:55.683Z,3.40
2023-04-19T07:18:22.502Z,2.95
2023-04-19T07:20:49.538Z,3.20
2023-04-19T07:23:16.265Z,3.00
2023-04-19T07:25:43.104Z,3.05
2023-04-19T07:28:09.828Z,2.95
2023-04-19T07:30:36.492Z,3.22
2023-04-19T07:33:05.174Z,2.65
2023-04-19T07:35:31.900Z,2.78
2023-04-19T07:37:58.712Z,2.80
2023-04-19T07:40:25.517Z,2.50
2023-04-19T07:42:52.140Z,2.78
2023-04-19T07:45:18.885Z,2.75
2023-04-19T07:47:45.809Z,2.85
2023-04-19T07:50:12.630Z,2.95
2023-04-19T07:52:39.466Z,2.70
2023-04-19T07:55:07.013Z,2.80
2023-04-19T07:57:35.202Z,2.90
2023-04-19T08:00:02.347Z,3.00
2023-04-19T08:02:29.359Z,3.00
2023-04-19T08:04:57.892Z,2.83
2023-04-19T08:07:26.188Z,2.50
2023-04-19T08:09:53.318Z,2.58
2023-04-19T08:12:34.624Z,2.63
2023-04-19T08:15:22.621Z,2.70
2023-04-19T08:17:54.634Z,2.85
2023-04-19T08:20:21.957Z,2.80
2023-04-19T08:22:48.596Z,2.30
2023-04-19T08:25:15.541Z,2.65
2023-04-19T08:27:42.721Z,2.67
2023-04-19T08:30:10.919Z,2.50
2023-04-19T08:32:37.840Z,2.50
2023-04-19T08:35:05.799Z,2.70
2023-04-19T08:37:32.431Z,2.53
2023-04-19T08:39:58.982Z,2.10
2023-04-19T08:42:35.478Z,2.45
2023-04-19T08:50:23.939Z,2.40
2023-04-19T08:52:56.032Z,2.20
2023-04-19T08:55:28.996Z,2.08
2023-04-19T08:57:56.960Z,2.28
2023-04-19T09:00:23.784Z,2.40
2023-04-19T09:02:55.883Z,2.58
2023-04-19T09:05:22.946Z,2.45
2023-04-19T09:07:50.405Z,2.30
2023-04-19T09:10:21.240Z,2.20
2023-04-19T09:13:05.796Z,2.83
2023-04-19T09:15:38.603Z,2.60
2023-04-19T09:18:10.784Z,1.90
2023-04-19T09:20:39.020Z,2.28
2023-04-19T09:23:07.535Z,2.30
2023-04-19T09:25:55.104Z,2.50
2023-04-19T09:28:22.840Z,2.33
2023-04-19T09:31:02.292Z,2.00
2023-04-19T09:33:39.831Z,2.40
2023-04-19T09:36:08.320Z,2.00
2023-04-19T09:38:49.105Z,2.25
2023-04-19T09:41:17.486Z,2.65
2023-04-19T09:44:07.394Z,1.98
2023-04-19T09:46:35.366Z,2.17
2023-04-19T09:49:24.668Z,1.95
2023-04-19T09:51:56.346Z,2.15
2023-04-19T09:54:24.725Z,2.00
2023-04-19T09:56:54.688Z,2.17
2023-04-19T09:59:23.595Z,2.10
2023-04-19T10:01:57.313Z,1.90
2023-04-19T10:04:33.312Z,2.15
2023-04-19T10:10:05.057Z,2.25
2023-04-19T10:12:59.203Z,2.28
2023-04-19T10:15:33.859Z,2.30
2023-04-19T10:18:10.408Z,2.20
2023-04-19T10:21:00.749Z,2.50
2023-04-19T10:23:29.081Z,2.20
2023-04-19T10:26:00.248Z,2.00
2023-04-19T10:28:31.230Z,1.90
2023-04-19T10:31:03.116Z,1.95
2023-04-19T10:33:38.121Z,1.50
2023-04-19T10:36:08.442Z,1.67
2023-04-19T10:38:49.626Z,2.00
2023-04-19T10:41:18.887Z,1.52
2023-04-19T10:44:08.737Z,1.60
2023-04-19T10:46:36.333Z,1.75
2023-04-19T10:49:05.390Z,1.90
2023-04-19T10:51:36.627Z,1.70
2023-04-19T10:54:04.021Z,1.60
2023-04-19T10:56:33.946Z,1.38
2023-04-19T10:59:11.697Z,1.98
2023-04-19T11:01:40.263Z,1.70
2023-04-19T11:04:09.018Z,1.65
2023-04-19T11:06:37.739Z,1.60
2023-04-19T11:09:10.059Z,1.70
2023-04-19T11:11:37.088Z,1.70
2023-04-19T11:14:04.704Z,1.80
2023-04-19T11:19:05.188Z,1.77
2023-04-19T11:21:33.452Z,1.70
2023-04-19T11:24:10.305Z,1.73
2023-04-19T11:26:37.124Z,1.80
2023-04-19T11:29:04.657Z,1.80
2023-04-19T11:31:34.365Z,1.80
2023-04-19T11:34:02.621Z,1.80
2023-04-19T11:36:29.535Z,2.03
2023-04-19T11:38:56.089Z,1.90
2023-04-19T11:41:22.968Z,1.88
2023-04-19T11:43:49.700Z,1.80
2023-04-19T11:46:16.328Z,2.00
2023-04-19T11:48:55.239Z,1.83
2023-04-19T11:51:21.932Z,2.10
2023-04-19T11:53:48.690Z,2.30
2023-04-19T11:56:16.868Z,2.30
2023-04-19T11:58:45.752Z,2.25
2023-04-19T12:01:22.844Z,2.30
2023-04-19T12:03:49.862Z,2.60
2023-04-19T12:06:25.692Z,2.65
2023-04-19T12:08:54.133Z,2.50
2023-04-19T12:11:44.531Z,2.70
2023-04-19T12:14:12.928Z,2.67
2023-04-19T12:16:39.698Z,2.67
2023-04-19T12:19:20.730Z,2.70
2023-04-19T12:21:47.905Z,2.50
2023-04-19T12:24:17.809Z,2.80
2023-04-19T12:26:56.379Z,2.75
2023-04-19T12:29:42.293Z,2.15
2023-04-19T12:32:10.943Z,2.70
2023-04-19T12:34:37.616Z,2.60
2023-04-19T12:37:04.519Z,2.88
2023-04-19T12:39:31.323Z,2.80
2023-04-19T12:41:58.011Z,2.70
2023-04-19T12:44:24.743Z,2.80
2023-04-19T12:46:51.608Z,3.28
2023-04-19T12:49:19.900Z,2.50
2023-04-19T12:51:47.624Z,2.45
2023-04-19T12:54:15.559Z,2.40
2023-04-19T12:56:42.184Z,2.60
2023-04-19T12:59:08.881Z,2.67
2023-04-19T13:01:35.848Z,2.72
2023-04-19T13:04:03.262Z,2.70
2023-04-19T13:06:30.268Z,2.83
2023-04-19T13:09:00.894Z,3.10
2023-04-19T13:11:28.345Z,2.70
2023-04-19T13:13:55.119Z,3.17
2023-04-19T13:16:22.849Z,2.80
2023-04-19T13:18:51.026Z,3.17
2023-04-19T13:21:18.154Z,2.50
2023-04-19T13:23:45.315Z,2.30
2023-04-19T13:26:13.296Z,2.50
2023-04-19T13:28:42.675Z,3.00
2023-04-19T13:31:10.631Z,2.80
2023-04-19T13:33:39.460Z,2.47
2023-04-19T13:36:07.541Z,2.90
2023-04-19T13:38:36.030Z,2.70
2023-04-19T13:41:05.153Z,2.90
2023-04-19T13:43:33.008Z,2.35
2023-04-19T13:46:00.550Z,2.72
2023-04-19T13:48:29.538Z,3.00
2023-04-19T13:50:58.221Z,2.60
2023-04-19T13:53:27.675Z,2.83
2023-04-19T13:55:57.933Z,2.85
2023-04-19T13:58:27.244Z,2.13
2023-04-19T14:00:55.863Z,2.80
2023-04-19T14:03:25.367Z,2.70
2023-04-19T14:05:54.318Z,3.20
2023-04-19T14:08:22.356Z,2.78
2023-04-19T14:10:50.823Z,2.80
2023-04-19T14:13:19.157Z,3.33
2023-04-19T14:15:47.326Z,3.00
2023-04-19T14:18:14.526Z,2.60
2023-04-19T14:20:42.447Z,2.92
2023-04-19T14:23:10.367Z,3.53
2023-04-19T14:25:37.809Z,2.95
2023-04-19T14:28:05.483Z,3.00
2023-04-19T14:30:33.269Z,3.05
2023-04-19T14:33:01.042Z,3.60
2023-04-19T14:35:28.439Z,3.90
2023-04-19T14:37:55.818Z,3.92
2023-04-19T14:40:23.582Z,3.92
2023-04-19T14:42:51.004Z,4.30
2023-04-19T14:45:18.311Z,4.13
2023-04-19T14:47:45.694Z,3.65
2023-04-19T14:50:13.057Z,3.40
2023-04-19T14:52:40.843Z,3.78
2023-04-19T14:55:08.764Z,3.53
2023-04-19T14:57:36.207Z,4.13
2023-04-19T15:00:04.046Z,3.85
2023-04-19T15:02:32.023Z,3.90
2023-04-19T15:04:59.538Z,4.00
2023-04-19T15:07:28.762Z,3.58
2023-04-19T15:09:55.696Z,3.22
2023-04-19T15:12:22.291Z,3.47
2023-04-19T15:14:48.962Z,3.28
2023-04-19T15:17:16.722Z,3.03
2023-04-19T15:19:45.630Z,3.65
2023-04-19T15:22:12.376Z,4.18
2023-04-19T15:24:39.271Z,2.78
2023-04-19T15:27:05.876Z,3.65
2023-04-19T15:29:32.589Z,3.78
2023-04-19T15:31:59.656Z,3.35
2023-04-19T15:34:26.283Z,2.42
2023-04-19T15:36:52.960Z,3.03
2023-04-19T15:39:19.694Z,3.17
2023-04-19T15:41:46.417Z,2.80
2023-04-19T15:44:13.664Z,3.10
2023-04-19T15:46:40.531Z,3.30
2023-04-19T15:49:07.293Z,2.88
2023-04-19T15:51:34.046Z,2.88
2023-04-19T15:54:01.043Z,2.78
2023-04-19T15:56:27.765Z,2.80
2023-04-19T15:58:54.513Z,2.75
2023-04-19T16:01:23.060Z,2.58
2023-04-19T16:03:49.835Z,3.00
2023-04-19T16:06:16.981Z,2.90
2023-04-19T16:08:43.731Z,3.08
2023-04-19T16:11:10.449Z,2.83
2023-04-19T16:13:37.330Z,2.58
2023-04-19T16:16:04.374Z,2.70
2023-04-19T16:18:31.002Z,2.67
2023-04-19T16:20:57.945Z,2.78
2023-04-19T16:23:24.617Z,2.60
2023-04-19T16:25:51.589Z,2.50
2023-04-19T16:28:19.933Z,2.92
2023-04-19T16:30:47.559Z,2.72
2023-04-19T16:33:15.735Z,3.10
2023-04-19T16:35:42.730Z,2.63
2023-04-19T16:38:09.339Z,2.28
2023-04-19T16:40:36.015Z,2.60
2023-04-19T16:43:02.873Z,2.60
2023-04-19T16:45:29.964Z,2.13
2023-04-19T16:47:56.800Z,2.50
2023-04-19T16:50:23.750Z,2.50
2023-04-19T16:52:50.490Z,2.35
2023-04-19T16:55:17.208Z,2.60
2023-04-19T16:57:43.982Z,2.53
2023-04-19T17:00:11.285Z,2.53
2023-04-19T17:02:38.185Z,2.22
2023-04-19T17:05:05.598Z,2.20
2023-04-19T17:07:32.257Z,2.30
2023-04-19T17:09:59.060Z,2.30
2023-04-19T17:12:25.867Z,2.10
2023-04-19T17:14:52.451Z,2.15
2023-04-19T17:17:20.065Z,2.65
2023-04-19T17:19:46.934Z,2.35
2023-04-19T17:22:15.047Z,2.40
2023-04-19T17:24:42.272Z,2.08
2023-04-19T17:27:09.356Z,2.70
2023-04-19T17:29:36.215Z,2.60
2023-04-19T17:32:03.033Z,2.58
2023-04-19T17:34:29.792Z,3.05
2023-04-19T17:36:57.361Z,2.50
2023-04-19T17:39:27.691Z,2.80
2023-04-19T17:41:55.819Z,2.33
2023-04-19T17:44:23.302Z,2.80
2023-04-19T17:46:50.103Z,2.83
2023-04-19T17:49:21.650Z,3.38
2023-04-19T17:51:48.607Z,3.15
2023-04-19T17:54:15.880Z,2.80
2023-04-19T17:56:43.012Z,3.20
2023-04-19T17:59:09.813Z,3.25
2023-04-19T18:01:36.661Z,3.17
2023-04-19T18:04:05.417Z,2.90
2023-04-19T18:06:32.493Z,3.20
2023-04-19T18:08:59.268Z,2.80
2023-04-19T18:11:28.339Z,3.30
2023-04-19T18:13:55.678Z,3.10
2023-04-19T18:16:22.498Z,3.35
2023-04-19T18:18:49.255Z,3.17
2023-04-19T18:21:16.288Z,3.50
2023-04-19T18:23:42.997Z,2.70
2023-04-19T18:26:09.767Z,2.90
2023-04-19T18:28:37.502Z,2.63
2023-04-19T18:31:05.800Z,2.80
2023-04-19T18:33:32.520Z,2.90
2023-04-19T18:35:59.205Z,2.72
2023-04-19T18:38:26.288Z,2.90
2023-04-19T18:40:53.090Z,2.60
2023-04-19T18:43:19.744Z,3.00
2023-04-19T18:45:53.385Z,2.83
2023-04-19T18:48:20.084Z,2.80
2023-04-19T18:50:46.708Z,3.10
2023-04-19T18:53:14.118Z,2.67
2023-04-19T18:55:40.960Z,2.65
2023-04-19T18:58:09.134Z,3.00
2023-04-19T19:00:36.062Z,2.70
2023-04-19T19:03:03.920Z,2.80
2023-04-19T19:05:30.980Z,2.75
2023-04-19T19:07:58.072Z,2.70
2023-04-19T19:10:57.216Z,2.53
2023-04-19T19:13:14.732Z,2.53
2023-04-19T19:15:41.704Z,2.57
2023-04-19T19:18:08.564Z,2.75
2023-04-19T19:20:35.603Z,2.50
2023-04-19T19:23:03.267Z,2.60
2023-04-19T19:25:30.036Z,2.25
2023-04-19T19:28:07.505Z,2.85
2023-04-19T19:30:39.967Z,2.70
2023-04-19T19:35:33.767Z,3.10
2023-04-19T19:38:00.539Z,2.40
2023-04-19T19:40:31.022Z,2.58
2023-04-19T19:42:59.464Z,2.50
2023-04-19T19:45:30.491Z,2.47
2023-04-19T19:48:01.262Z,2.63
2023-04-19T19:52:59.996Z,2.67
2023-04-19T19:55:26.978Z,2.65
2023-04-19T20:00:42.851Z,2.70
2023-04-19T20:03:10.527Z,2.40
2023-04-19T20:05:38.409Z,2.60
2023-04-19T20:08:12.021Z,2.65
2023-04-19T20:10:40.575Z,2.50
2023-04-19T20:13:07.258Z,2.60
2023-04-19T20:15:35.351Z,2.70
2023-04-19T20:18:03.849Z,2.22
2023-04-19T20:20:31.009Z,3.03
2023-04-19T20:22:57.808Z,2.65
2023-04-19T20:25:24.848Z,2.50
2023-04-19T20:27:51.474Z,2.80
2023-04-19T20:30:18.170Z,2.70
2023-04-19T20:32:45.222Z,3.10
2023-04-19T20:35:12.626Z,2.80
2023-04-19T20:37:40.241Z,2.70
2023-04-19T20:40:09.852Z,2.55
2023-04-19T20:42:36.538Z,3.10
2023-04-19T20:45:03.551Z,2.90
2023-04-19T20:47:32.104Z,2.67
2023-04-19T20:49:58.853Z,2.80
2023-04-19T20:52:25.573Z,2.63
2023-04-19T20:54:52.344Z,2.97
2023-04-19T20:57:19.022Z,2.88
2023-04-19T20:59:47.145Z,2.33
2023-04-19T21:02:14.297Z,2.70
2023-04-19T21:04:42.506Z,3.00
2023-04-19T21:07:09.383Z,3.20
2023-04-19T21:09:36.533Z,2.97
2023-04-19T21:12:03.208Z,3.00
2023-04-19T21:14:32.917Z,3.42
2023-04-19T21:17:03.899Z,3.00
2023-04-19T21:19:30.777Z,2.90
2023-04-19T21:21:58.579Z,3.00
2023-04-19T21:24:25.297Z,3.35
2023-04-19T21:26:51.964Z,3.00
2023-04-19T21:29:18.978Z,3.30
2023-04-19T21:31:46.050Z,3.15
2023-04-19T21:34:12.693Z,2.90
2023-04-19T21:36:39.320Z,3.25
2023-04-19T21:39:06.189Z,3.55
2023-04-19T21:41:32.873Z,3.20
2023-04-19T21:43:59.486Z,4.10
2023-04-19T21:46:26.220Z,3.78
2023-04-19T21:48:55.505Z,3.47
2023-04-19T21:51:22.557Z,3.60
2023-04-19T21:53:49.296Z,3.30
2023-04-19T21:56:15.905Z,3.55
2023-04-19T21:58:42.576Z,3.58
2023-04-19T22:01:10.919Z,3.45
2023-04-19T22:03:37.892Z,3.30
2023-04-19T22:06:05.008Z,3.13
2023-04-19T22:08:32.867Z,3.65
2023-04-19T22:13:38.679Z,3.42
2023-04-19T22:16:05.942Z,3.40
2023-04-19T22:18:35.831Z,3.28
2023-04-19T22:21:02.740Z,3.40
2023-04-19T22:23:29.432Z,3.10
2023-04-19T22:25:56.069Z,3.28
2023-04-19T22:28:22.769Z,3.30
2023-04-19T22:30:51.118Z,3.30
2023-04-19T22:33:18.397Z,3.10
2023-04-19T22:35:45.243Z,3.28
2023-04-19T22:38:11.897Z,3.17
2023-04-19T22:40:38.508Z,3.22
2023-04-19T22:43:05.395Z,3.40
2023-04-19T22:45:32.175Z,2.97
2023-04-19T22:47:59.557Z,3.08
2023-04-19T22:50:26.349Z,3.35
2023-04-19T22:52:52.958Z,3.08
2023-04-19T22:55:19.609Z,3.83
2023-04-19T22:57:46.409Z,3.40
2023-04-19T23:00:13.491Z,3.22
2023-04-19T23:02:40.869Z,3.35
2023-04-19T23:05:08.059Z,3.10
2023-04-19T23:07:34.781Z,3.03
2023-04-19T23:10:03.107Z,3.15
2023-04-19T23:12:31.240Z,3.45
2023-04-19T23:14:58.440Z,3.30
2023-04-19T23:17:25.492Z,3.55
2023-04-19T23:19:52.226Z,3.13
2023-04-19T23:22:18.813Z,3.22
2023-04-19T23:24:45.401Z,3.10
2023-04-19T23:27:12.929Z,3.53
2023-04-19T23:29:39.517Z,3.42
2023-04-19T23:32:07.366Z,3.20
2023-04-19T23:34:34.092Z,3.92
2023-04-19T23:37:00.777Z,3.80
2023-04-19T23:39:27.325Z,3.50
2023-04-19T23:41:54.267Z,3.50
2023-04-19T23:44:21.471Z,3.33
2023-04-19T23:46:48.164Z,3.50
2023-04-19T23:49:15.228Z,3.53
2023-04-19T23:51:42.078Z,2.80
2023-04-19T23:54:08.656Z,3.45
2023-04-19T23:56:35.651Z,3.40
2023-04-19T23:59:02.216Z,3.42
